createdAt,value
2023-03-29T00:00:00.301Z,95.30
2023-03-29T00:02:33.570Z,95.60
2023-03-29T00:05:04.720Z,96.00
2023-03-29T00:07:36.351Z,96.20
2023-03-29T00:10:07.612Z,96.40
2023-03-29T00:12:34.854Z,96.80
2023-03-29T00:15:03.409Z,97.00
2023-03-29T00:17:31.024Z,97.40
2023-03-29T00:19:58.580Z,97.60
2023-03-29T00:22:26.185Z,97.80
2023-03-29T00:24:54.269Z,97.80
2023-03-29T00:27:22.304Z,98.00
2023-03-29T00:29:49.469Z,98.30
2023-03-29T00:32:16.618Z,98.80
2023-03-29T00:34:46.052Z,99.10
2023-03-29T00:37:14.887Z,99.30
2023-03-29T00:39:42.254Z,99.40
2023-03-29T00:42:14.228Z,99.50
2023-03-29T00:45:16.495Z,99.60
2023-03-29T00:47:58.448Z,99.70
2023-03-29T00:50:32.780Z,99.70
2023-03-29T00:53:21.869Z,99.70
2023-03-29T00:56:10.113Z,99.70
2023-03-29T00:58:48.896Z,99.80
2023-03-29T01:01:26.024Z,99.90
2023-03-29T01:04:09.649Z,99.90
2023-03-29T01:06:39.555Z,99.90
2023-03-29T01:09:12.679Z,99.90
2023-03-29T01:11:53.530Z,99.90
2023-03-29T01:14:49.959Z,99.90
2023-03-29T01:17:17.090Z,99.90
2023-03-29T01:19:51.765Z,99.90
2023-03-29T01:23:07.486Z,99.90
2023-03-29T01:25:46.443Z,99.90
2023-03-29T01:28:22.214Z,99.90
2023-03-29T01:30:54.391Z,99.90
2023-03-29T01:33:26.757Z,99.90
2023-03-29T01:36:17.471Z,99.90
2023-03-29T01:38:56.906Z,99.90
2023-03-29T01:41:58.467Z,99.90
2023-03-29T01:45:13.576Z,99.90
2023-03-29T01:48:11.593Z,99.90
2023-03-29T01:50:56.062Z,99.90
2023-03-29T01:53:37.040Z,99.90
2023-03-29T01:56:16.292Z,99.90
2023-03-29T01:58:49.138Z,99.90
2023-03-29T02:01:26.030Z,99.90
2023-03-29T02:03:57.731Z,99.90
2023-03-29T02:06:28.138Z,99.90
2023-03-29T02:08:58.420Z,99.90
2023-03-29T02:11:29.342Z,99.90
2023-03-29T02:13:59.731Z,99.90
2023-03-29T02:16:27.037Z,99.90
2023-03-29T02:18:57.007Z,99.90
2023-03-29T02:21:43.456Z,99.90
2023-03-29T02:24:16.345Z,99.90
2023-03-29T02:26:43.641Z,99.90
2023-03-29T02:29:11.100Z,99.90
2023-03-29T02:32:04.767Z,99.90
2023-03-29T02:34:54.719Z,99.90
2023-03-29T02:37:25.693Z,99.90
2023-03-29T02:39:53.861Z,99.90
2023-03-29T02:42:22.378Z,99.90
2023-03-29T02:44:54.526Z,99.90
2023-03-29T02:47:31.966Z,99.90
2023-03-29T02:50:00.369Z,99.90
2023-03-29T02:52:35.182Z,99.90
2023-03-29T02:55:05.488Z,99.90
2023-03-29T02:57:33.092Z,99.90
2023-03-29T03:00:01.179Z,99.90
2023-03-29T03:02:29.791Z,99.90
2023-03-29T03:04:57.606Z,99.90
2023-03-29T03:07:25.010Z,99.90
2023-03-29T03:09:52.725Z,99.90
2023-03-29T03:12:19.869Z,99.90
2023-03-29T03:14:47.073Z,99.90
2023-03-29T03:17:14.165Z,99.90
2023-03-29T03:19:41.921Z,99.90
2023-03-29T03:22:10.022Z,99.90
2023-03-29T03:24:37.186Z,99.90
2023-03-29T03:27:08.561Z,99.90
2023-03-29T03:29:36.470Z,99.90
2023-03-29T03:32:04.392Z,99.90
2023-03-29T03:34:31.684Z,99.90
2023-03-29T03:37:01.750Z,99.90
2023-03-29T03:39:29.407Z,99.90
2023-03-29T03:41:56.498Z,99.90
2023-03-29T03:44:23.616Z,99.90
2023-03-29T03:46:51.026Z,99.90
2023-03-29T03:49:19.278Z,99.90
2023-03-29T03:51:46.401Z,99.90
2023-03-29T03:54:13.501Z,99.90
2023-03-29T03:56:40.700Z,99.90
2023-03-29T03:59:07.792Z,99.90
2023-03-29T04:01:35.611Z,99.90
2023-03-29T04:04:03.118Z,99.90
2023-03-29T04:06:30.713Z,99.90
2023-03-29T04:08:57.998Z,99.90
2023-03-29T04:11:25.722Z,99.90
2023-03-29T04:13:52.808Z,99.90
2023-03-29T04:16:20.003Z,99.90
2023-03-29T04:18:47.869Z,99.90
2023-03-29T04:21:15.209Z,99.90
2023-03-29T04:23:46.618Z,99.90
2023-03-29T04:26:15.345Z,99.90
2023-03-29T04:28:42.537Z,99.90
2023-03-29T04:31:13.213Z,99.90
2023-03-29T04:33:40.957Z,99.90
2023-03-29T04:36:09.365Z,99.90
2023-03-29T04:38:36.520Z,99.90
2023-03-29T04:41:05.050Z,99.90
2023-03-29T04:43:32.385Z,99.90
2023-03-29T04:45:59.616Z,99.90
2023-03-29T04:48:27.054Z,99.90
2023-03-29T04:50:54.571Z,99.90
2023-03-29T04:53:22.334Z,99.90
2023-03-29T04:55:49.519Z,99.90
2023-03-29T04:58:17.809Z,99.90
2023-03-29T05:00:45.965Z,99.90
2023-03-29T05:03:14.619Z,99.90
2023-03-29T05:05:41.972Z,99.90
2023-03-29T05:08:09.599Z,99.90
2023-03-29T05:10:37.153Z,99.90
2023-03-29T05:13:04.351Z,99.90
2023-03-29T05:15:31.916Z,99.90
2023-03-29T05:17:59.192Z,99.90
2023-03-29T05:20:26.498Z,99.90
2023-03-29T05:22:53.686Z,99.90
2023-03-29T05:25:23.753Z,99.90
2023-03-29T05:27:51.000Z,99.90
2023-03-29T05:30:18.262Z,99.90
2023-03-29T05:32:45.452Z,99.90
2023-03-29T05:35:12.580Z,99.90
2023-03-29T05:37:39.712Z,99.90
2023-03-29T05:40:10.509Z,99.90
2023-03-29T05:42:38.704Z,99.90
2023-03-29T05:45:06.808Z,99.90
2023-03-29T05:47:34.035Z,99.90
2023-03-29T05:50:01.172Z,99.90
2023-03-29T05:52:28.319Z,99.90
2023-03-29T05:54:55.435Z,99.90
2023-03-29T05:57:23.142Z,99.90
2023-03-29T05:59:50.330Z,99.90
2023-03-29T06:02:17.504Z,99.90
2023-03-29T06:04:45.003Z,99.90
2023-03-29T06:07:12.655Z,99.90
2023-03-29T06:09:39.955Z,99.90
2023-03-29T06:12:08.746Z,99.90
2023-03-29T06:14:37.298Z,99.90
2023-03-29T06:17:05.222Z,99.90
2023-03-29T06:19:32.496Z,99.90
2023-03-29T06:21:59.608Z,99.90
2023-03-29T06:24:27.120Z,99.90
2023-03-29T06:26:54.196Z,99.90
2023-03-29T06:29:22.191Z,99.90
2023-03-29T06:31:49.355Z,99.90
2023-03-29T06:34:17.440Z,99.90
2023-03-29T06:36:45.907Z,99.90
2023-03-29T06:39:13.036Z,99.90
2023-03-29T06:41:43.293Z,99.90
2023-03-29T06:44:10.469Z,99.90
2023-03-29T06:46:37.741Z,99.90
2023-03-29T06:49:04.984Z,99.90
2023-03-29T06:51:32.462Z,99.90
2023-03-29T06:54:00.171Z,99.90
2023-03-29T06:56:27.344Z,99.90
2023-03-29T06:58:54.433Z,99.90
2023-03-29T07:01:21.872Z,99.90
2023-03-29T07:03:49.368Z,99.90
2023-03-29T07:06:20.382Z,99.90
2023-03-29T07:08:52.405Z,99.90
2023-03-29T07:11:20.408Z,99.90
2023-03-29T07:13:49.159Z,99.90
2023-03-29T07:16:16.813Z,99.90
2023-03-29T07:18:44.967Z,99.90
2023-03-29T07:21:13.585Z,99.90
2023-03-29T07:23:41.314Z,99.90
2023-03-29T07:26:09.150Z,99.90
2023-03-29T07:28:39.904Z,99.90
2023-03-29T07:31:15.557Z,99.90
2023-03-29T07:33:44.014Z,99.90
2023-03-29T07:36:11.402Z,99.90
2023-03-29T07:38:38.581Z,99.90
2023-03-29T07:41:08.118Z,99.90
2023-03-29T07:43:35.820Z,99.90
2023-03-29T07:46:05.371Z,99.90
2023-03-29T07:48:37.130Z,99.90
2023-03-29T07:51:05.297Z,99.60
2023-03-29T07:53:32.815Z,98.60
2023-03-29T07:56:00.325Z,98.70
2023-03-29T07:58:27.506Z,98.70
2023-03-29T08:00:54.691Z,98.40
2023-03-29T08:03:22.820Z,97.20
2023-03-29T08:05:50.084Z,96.90
2023-03-29T08:08:17.274Z,95.50
2023-03-29T08:10:44.663Z,95.20
2023-03-29T08:13:11.957Z,95.30
2023-03-29T08:15:40.120Z,96.40
2023-03-29T08:18:08.320Z,95.30
2023-03-29T08:20:35.686Z,95.10
2023-03-29T08:23:03.028Z,94.90
2023-03-29T08:25:30.302Z,94.30
2023-03-29T08:27:57.888Z,93.60
2023-03-29T08:30:25.771Z,93.60
2023-03-29T08:32:55.378Z,93.50
2023-03-29T08:35:23.121Z,93.00
2023-03-29T08:37:50.310Z,92.20
2023-03-29T08:40:24.882Z,91.50
2023-03-29T08:43:01.782Z,91.20
2023-03-29T08:46:01.898Z,91.50
2023-03-29T08:48:43.758Z,91.30
2023-03-29T08:51:28.985Z,88.90
2023-03-29T08:54:35.752Z,89.70
2023-03-29T08:57:19.554Z,88.60
2023-03-29T08:59:52.379Z,88.20
2023-03-29T09:02:26.470Z,81.90
2023-03-29T09:05:06.714Z,82.30
2023-03-29T09:07:33.862Z,75.80
2023-03-29T09:10:01.272Z,76.80
2023-03-29T09:12:53.615Z,78.50
2023-03-29T09:15:43.767Z,77.60
2023-03-29T09:18:41.488Z,75.80
2023-03-29T09:21:59.195Z,73.30
2023-03-29T09:24:26.232Z,72.10
2023-03-29T09:27:28.616Z,70.10
2023-03-29T09:30:07.278Z,71.10
2023-03-29T09:32:44.247Z,71.00
2023-03-29T09:35:25.159Z,69.20
2023-03-29T09:37:55.172Z,70.00
2023-03-29T09:40:52.669Z,70.20
2023-03-29T09:43:36.206Z,68.90
2023-03-29T09:46:16.063Z,67.40
2023-03-29T09:48:45.809Z,67.10
2023-03-29T09:51:14.345Z,68.10
2023-03-29T09:53:41.453Z,67.10
2023-03-29T09:56:09.086Z,66.60
2023-03-29T09:58:36.766Z,65.10
2023-03-29T10:01:10.409Z,66.20
2023-03-29T10:03:39.745Z,67.10
2023-03-29T10:06:11.047Z,66.60
2023-03-29T10:08:50.800Z,65.50
2023-03-29T10:11:34.772Z,66.00
2023-03-29T10:14:07.465Z,66.40
2023-03-29T10:16:39.907Z,65.30
2023-03-29T10:19:35.326Z,63.50
2023-03-29T10:22:14.640Z,61.90
2023-03-29T10:24:52.264Z,62.80
2023-03-29T10:27:27.417Z,61.70
2023-03-29T10:29:56.964Z,62.10
2023-03-29T10:32:38.493Z,62.30
2023-03-29T10:35:33.446Z,62.80
2023-03-29T10:38:06.554Z,62.60
2023-03-29T10:40:50.760Z,62.30
2023-03-29T10:43:17.768Z,62.00
2023-03-29T10:45:53.817Z,62.40
2023-03-29T10:48:30.747Z,62.90
2023-03-29T10:51:04.342Z,61.20
2023-03-29T10:53:34.473Z,61.60
2023-03-29T10:56:33.968Z,62.90
2023-03-29T10:59:31.598Z,60.80
2023-03-29T11:02:43.284Z,59.80
2023-03-29T11:05:32.579Z,59.70
2023-03-29T11:08:37.899Z,59.60
2023-03-29T11:11:34.351Z,62.40
2023-03-29T11:14:32.991Z,60.00
2023-03-29T11:17:39.517Z,62.20
2023-03-29T11:20:38.855Z,62.00
2023-03-29T11:23:43.771Z,63.10
2023-03-29T11:26:10.773Z,65.10
2023-03-29T11:29:13.895Z,64.80
2023-03-29T11:32:17.821Z,65.50
2023-03-29T11:35:05.910Z,64.80
2023-03-29T11:37:54.665Z,65.70
2023-03-29T11:40:58.545Z,66.50
2023-03-29T11:43:37.703Z,66.50
2023-03-29T11:46:29.612Z,66.60
2023-03-29T11:49:05.711Z,68.10
2023-03-29T11:51:48.962Z,69.40
2023-03-29T11:54:41.091Z,70.70
2023-03-29T11:57:26.096Z,72.50
2023-03-29T12:00:06.129Z,72.90
2023-03-29T12:02:42.473Z,73.60
2023-03-29T12:05:35.352Z,75.80
2023-03-29T12:08:12.899Z,75.50
2023-03-29T12:10:50.136Z,76.10
2023-03-29T12:13:36.851Z,77.00
2023-03-29T12:16:22.141Z,78.60
2023-03-29T12:18:54.335Z,81.00
2023-03-29T12:21:25.076Z,82.40
2023-03-29T12:23:53.149Z,84.80
2023-03-29T12:26:49.622Z,87.30
2023-03-29T12:29:19.487Z,88.20
2023-03-29T12:32:12.409Z,89.20
2023-03-29T12:35:03.380Z,90.20
2023-03-29T12:38:28.732Z,90.40
2023-03-29T12:41:05.208Z,89.90
2023-03-29T12:43:43.451Z,89.40
2023-03-29T12:46:31.843Z,89.20
2023-03-29T12:49:09.580Z,90.00
2023-03-29T12:51:39.861Z,90.40
2023-03-29T12:54:21.206Z,90.10
2023-03-29T12:57:00.449Z,90.70
2023-03-29T12:59:45.026Z,90.70
2023-03-29T13:02:15.276Z,90.80
2023-03-29T13:04:57.255Z,90.50
2023-03-29T13:07:26.492Z,90.40
2023-03-29T13:10:03.669Z,91.40
2023-03-29T13:12:39.499Z,91.60
2023-03-29T13:15:23.666Z,91.40
2023-03-29T13:18:26.212Z,91.90
2023-03-29T13:20:57.199Z,92.10
2023-03-29T13:23:59.859Z,92.40
2023-03-29T13:26:49.813Z,92.50
2023-03-29T13:29:33.735Z,92.70
2023-03-29T13:32:50.395Z,93.00
2023-03-29T13:35:42.188Z,93.30
2023-03-29T13:40:53.459Z,93.60
2023-03-29T13:43:29.345Z,93.50
2023-03-29T13:45:59.361Z,93.10
2023-03-29T13:48:36.808Z,93.10
2023-03-29T13:51:18.930Z,93.70
2023-03-29T13:53:56.151Z,93.60
2023-03-29T13:56:59.162Z,93.50
2023-03-29T14:00:17.877Z,92.70
2023-03-29T14:02:51.655Z,93.10
2023-03-29T14:05:28.822Z,93.20
2023-03-29T14:07:57.076Z,93.10
2023-03-29T14:10:41.194Z,93.00
2023-03-29T14:13:17.437Z,93.20
2023-03-29T14:16:06.982Z,93.20
2023-03-29T14:18:40.545Z,94.10
2023-03-29T14:21:08.585Z,94.80
2023-03-29T14:23:38.124Z,95.30
2023-03-29T14:26:34.591Z,96.20
2023-03-29T14:29:03.077Z,97.60
2023-03-29T14:31:32.516Z,98.10
2023-03-29T14:34:02.287Z,98.80
2023-03-29T14:36:33.395Z,99.60
2023-03-29T14:39:18.627Z,99.80
2023-03-29T14:41:58.251Z,99.90
2023-03-29T14:44:33.263Z,99.90
2023-03-29T14:47:02.994Z,99.90
2023-03-29T14:49:31.748Z,99.90
2023-03-29T14:51:59.368Z,99.90
2023-03-29T14:54:32.998Z,99.90
2023-03-29T14:57:03.616Z,99.90
2023-03-29T14:59:43.555Z,99.90
2023-03-29T15:02:32.202Z,99.90
2023-03-29T15:05:06.149Z,99.90
2023-03-29T15:07:36.484Z,99.90
2023-03-29T15:10:06.518Z,99.90
2023-03-29T15:12:36.064Z,99.90
2023-03-29T15:15:04.321Z,99.90
2023-03-29T15:17:50.949Z,99.90
2023-03-29T15:20:32.543Z,99.90
2023-03-29T15:23:04.105Z,99.90
2023-03-29T15:25:38.164Z,99.90
2023-03-29T15:28:06.364Z,99.90
2023-03-29T15:30:46.267Z,99.90
2023-03-29T15:33:23.165Z,99.90
2023-03-29T15:35:54.093Z,99.90
2023-03-29T15:38:27.516Z,99.90
2023-03-29T15:41:01.491Z,99.90
2023-03-29T15:43:29.009Z,99.90
2023-03-29T15:45:56.896Z,99.90
2023-03-29T15:48:27.339Z,99.90
2023-03-29T15:50:55.012Z,99.90
2023-03-29T15:53:23.776Z,99.90
2023-03-29T15:55:53.944Z,99.90
2023-03-29T15:58:27.779Z,99.90
2023-03-29T16:01:13.919Z,99.90
2023-03-29T16:03:41.727Z,99.90
2023-03-29T16:06:12.415Z,99.90
2023-03-29T16:08:40.846Z,99.90
2023-03-29T16:11:07.970Z,99.90
2023-03-29T16:13:35.486Z,99.90
2023-03-29T16:16:02.898Z,99.90
2023-03-29T16:18:30.488Z,99.90
2023-03-29T16:20:57.664Z,99.90
2023-03-29T16:23:24.775Z,99.90
2023-03-29T16:25:51.988Z,99.90
2023-03-29T16:28:19.101Z,99.90
2023-03-29T16:30:46.614Z,99.90
2023-03-29T16:33:14.359Z,99.90
2023-03-29T16:35:42.079Z,99.90
2023-03-29T16:38:09.485Z,99.90
2023-03-29T16:40:36.987Z,99.90
2023-03-29T16:43:04.655Z,99.90
2023-03-29T16:45:32.274Z,99.90
2023-03-29T16:47:59.511Z,99.90
2023-03-29T16:50:26.831Z,99.90
2023-03-29T16:52:54.118Z,99.90
2023-03-29T16:55:21.293Z,99.90
2023-03-29T16:57:48.969Z,99.90
2023-03-29T17:00:19.706Z,99.90
2023-03-29T17:02:49.770Z,99.90
2023-03-29T17:05:18.684Z,99.90
2023-03-29T17:07:47.435Z,99.90
2023-03-29T17:10:15.582Z,99.90
2023-03-29T17:12:42.781Z,99.90
2023-03-29T17:15:11.275Z,99.90
2023-03-29T17:17:38.696Z,99.90
2023-03-29T17:20:12.315Z,99.90
2023-03-29T17:22:40.746Z,99.90
2023-03-29T17:25:09.690Z,99.90
2023-03-29T17:27:41.155Z,99.90
2023-03-29T17:30:09.348Z,99.90
2023-03-29T17:32:36.912Z,99.90
2023-03-29T17:35:04.860Z,99.90
2023-03-29T17:37:32.121Z,99.90
2023-03-29T17:39:59.571Z,99.90
2023-03-29T17:42:27.760Z,99.90
2023-03-29T17:44:55.125Z,99.90
2023-03-29T17:47:22.447Z,99.90
2023-03-29T17:49:53.284Z,99.90
2023-03-29T17:52:21.067Z,99.90
2023-03-29T17:54:49.202Z,99.90
2023-03-29T17:57:20.064Z,99.90
2023-03-29T17:59:49.684Z,99.90
2023-03-29T18:02:20.837Z,99.90
2023-03-29T18:04:49.065Z,99.90
2023-03-29T18:07:18.385Z,99.90
2023-03-29T18:09:51.666Z,99.90
2023-03-29T18:12:20.939Z,99.90
2023-03-29T18:14:49.241Z,99.90
2023-03-29T18:17:17.539Z,99.90
2023-03-29T18:19:48.992Z,99.90
2023-03-29T18:22:21.372Z,99.90
2023-03-29T18:24:49.316Z,99.90
2023-03-29T18:27:19.109Z,99.90
2023-03-29T18:29:46.838Z,99.90
2023-03-29T18:32:16.959Z,99.90
2023-03-29T18:34:45.238Z,99.90
2023-03-29T18:37:15.559Z,99.90
2023-03-29T18:39:47.523Z,99.90
2023-03-29T18:42:19.435Z,99.90
2023-03-29T18:44:48.082Z,99.90
2023-03-29T18:47:18.333Z,99.90
2023-03-29T18:49:46.616Z,99.90
2023-03-29T18:52:15.756Z,99.90
2023-03-29T18:54:44.202Z,99.90
2023-03-29T18:57:12.292Z,99.90
2023-03-29T18:59:42.193Z,99.90
2023-03-29T19:02:11.382Z,99.90
2023-03-29T19:04:39.448Z,99.90
2023-03-29T19:07:09.025Z,99.90
2023-03-29T19:09:37.125Z,99.90
2023-03-29T19:12:05.178Z,99.90
2023-03-29T19:14:33.409Z,99.90
2023-03-29T19:17:01.546Z,99.90
2023-03-29T19:19:29.877Z,99.90
2023-03-29T19:22:00.592Z,99.90
2023-03-29T19:24:29.023Z,99.90
2023-03-29T19:26:57.857Z,99.90
2023-03-29T19:29:26.698Z,99.90
2023-03-29T19:31:56.459Z,99.90
2023-03-29T19:34:24.989Z,99.90
2023-03-29T19:36:56.318Z,99.90
2023-03-29T19:39:27.918Z,99.90
2023-03-29T19:41:57.985Z,99.90
2023-03-29T19:44:26.398Z,99.90
2023-03-29T19:46:54.550Z,99.90
2023-03-29T19:49:22.741Z,99.90
2023-03-29T19:51:56.436Z,99.90
2023-03-29T19:54:26.734Z,99.90
2023-03-29T19:56:57.807Z,99.90
2023-03-29T19:59:27.438Z,99.90
2023-03-29T20:01:57.149Z,99.90
2023-03-29T20:04:26.486Z,99.90
2023-03-29T20:06:54.361Z,99.90
2023-03-29T20:09:21.688Z,99.90
2023-03-29T20:11:49.192Z,99.90
2023-03-29T20:14:16.709Z,99.90
2023-03-29T20:16:45.180Z,99.90
2023-03-29T20:19:14.565Z,99.90
2023-03-29T20:21:42.295Z,99.90
2023-03-29T20:24:10.734Z,99.90
2023-03-29T20:26:37.859Z,99.90
2023-03-29T20:29:06.273Z,99.90
2023-03-29T20:31:33.388Z,99.90
2023-03-29T20:34:00.718Z,99.90
2023-03-29T20:36:30.871Z,99.90
2023-03-29T20:38:59.330Z,99.90
2023-03-29T20:41:26.944Z,99.90
2023-03-29T20:43:59.878Z,99.90
2023-03-29T20:46:35.743Z,99.90
2023-03-29T20:49:04.667Z,99.90
2023-03-29T20:51:32.204Z,99.90
2023-03-29T20:54:07.732Z,99.90
2023-03-29T20:56:39.019Z,99.90
2023-03-29T20:59:10.663Z,99.90
2023-03-29T21:01:40.629Z,99.90
2023-03-29T21:04:09.158Z,99.90
2023-03-29T21:06:39.552Z,99.90
2023-03-29T21:09:07.125Z,99.90
2023-03-29T21:11:34.248Z,99.90
2023-03-29T21:14:02.662Z,99.90
2023-03-29T21:16:31.154Z,99.90
2023-03-29T21:18:58.419Z,99.90
2023-03-29T21:21:25.650Z,99.90
2023-03-29T21:23:52.949Z,99.90
2023-03-29T21:26:20.119Z,99.90
2023-03-29T21:28:48.680Z,99.90
2023-03-29T21:31:16.004Z,99.90
2023-03-29T21:33:43.146Z,99.90
2023-03-29T21:36:10.388Z,99.90
2023-03-29T21:38:37.596Z,99.90
2023-03-29T21:41:06.895Z,99.90
2023-03-29T21:43:33.988Z,99.90
2023-03-29T21:46:02.250Z,99.90
2023-03-29T21:48:29.427Z,99.90
2023-03-29T21:50:56.658Z,99.90
2023-03-29T21:53:24.845Z,99.90
2023-03-29T21:55:52.696Z,99.90
2023-03-29T21:58:20.848Z,99.90
2023-03-29T22:00:48.578Z,99.90
2023-03-29T22:03:16.645Z,99.90
2023-03-29T22:05:44.526Z,99.90
2023-03-29T22:08:11.788Z,99.90
2023-03-29T22:10:43.056Z,99.90
2023-03-29T22:13:10.168Z,99.90
2023-03-29T22:15:37.264Z,99.90
2023-03-29T22:18:05.223Z,99.90
2023-03-29T22:20:34.196Z,99.90
2023-03-29T22:23:01.335Z,99.90
2023-03-29T22:25:28.457Z,99.90
2023-03-29T22:27:55.524Z,99.90
2023-03-29T22:30:23.033Z,99.90
2023-03-29T22:32:50.144Z,99.90
2023-03-29T22:35:17.334Z,99.90
2023-03-29T22:37:44.684Z,99.90
2023-03-29T22:40:13.217Z,99.90
2023-03-29T22:42:40.684Z,99.90
2023-03-29T22:45:08.996Z,99.90
2023-03-29T22:47:36.241Z,99.90
2023-03-29T22:50:03.601Z,99.90
2023-03-29T22:52:30.754Z,99.90
2023-03-29T22:54:57.979Z,99.90
2023-03-29T22:57:25.114Z,99.90
2023-03-29T22:59:52.377Z,99.90
2023-03-29T23:02:19.527Z,99.90
2023-03-29T23:04:47.590Z,99.90
2023-03-29T23:07:14.788Z,99.90
2023-03-29T23:09:42.267Z,99.90
2023-03-29T23:12:09.771Z,99.90
2023-03-29T23:14:37.639Z,99.90
2023-03-29T23:17:04.821Z,99.90
2023-03-29T23:19:32.121Z,99.90
2023-03-29T23:21:59.232Z,99.90
2023-03-29T23:24:26.669Z,99.90
2023-03-29T23:26:55.304Z,99.90
2023-03-29T23:29:22.761Z,99.90
2023-03-29T23:31:49.925Z,99.90
2023-03-29T23:34:18.242Z,99.90
2023-03-29T23:36:45.306Z,99.90
2023-03-29T23:39:12.406Z,99.90
2023-03-29T23:41:40.190Z,99.90
2023-03-29T23:44:07.847Z,99.90
2023-03-29T23:46:35.145Z,99.90
2023-03-29T23:49:02.266Z,99.90
2023-03-29T23:51:29.383Z,99.90
2023-03-29T23:53:56.965Z,99.90
2023-03-29T23:56:24.372Z,99.90
2023-03-29T23:58:51.799Z,99.90
